Time;durP1;ratioP1;P1;durP2;ratioP2;P2;SDS_P1;SDS_P2;PMS_P1;PMS_P2;Temp;Humidity;BMP_temperature;BMP_pressure;BME280_temperature;BME280_humidity;BME280_pressure;Samples;Min_cycle;Max_cycle;Signal;HPM_P1;HPM_P2
2022/08/11 00:00:42;;;;;;;68.70;4.27;;;23.70;1.00;;;;;;5066603;28;20475;-84
2022/08/11 00:03:10;;;;;;;68.00;4.77;;;23.60;1.00;;;;;;5083600;28;20391;-83
2022/08/11 00:05:47;;;;;;;66.67;4.30;;;23.50;1.00;;;;;;5083945;28;20396;-84
2022/08/11 00:08:22;;;;;;;66.80;4.70;;;23.50;1.00;;;;;;5084471;28;20869;-84
2022/08/11 00:11:05;;;;;;;66.67;4.83;;;23.50;1.00;;;;;;5066149;28;20407;-84
2022/08/11 00:13:38;;;;;;;67.47;4.30;;;23.40;1.00;;;;;;5065725;28;20569;-83
2022/08/11 00:16:23;;;;;;;71.53;4.90;;;23.30;1.00;;;;;;5082560;28;20415;-83
2022/08/11 00:18:54;;;;;;;68.20;4.60;;;23.30;1.00;;;;;;5081635;28;20382;-83
2022/08/11 00:21:22;;;;;;;70.77;4.80;;;23.30;1.00;;;;;;5064600;28;20731;-84
2022/08/11 00:24:00;;;;;;;67.40;4.93;;;23.20;1.00;;;;;;5063535;28;20442;-83
2022/08/11 00:26:27;;;;;;;66.80;4.70;;;23.20;1.00;;;;;;5081617;28;20530;-83
2022/08/11 00:28:53;;;;;;;67.17;4.50;;;23.20;1.00;;;;;;5081640;28;20801;-84
2022/08/11 00:31:25;;;;;;;71.27;5.00;;;23.20;1.00;;;;;;5080923;28;20409;-83
2022/08/11 00:33:51;;;;;;;67.97;4.83;;;23.20;1.00;;;;;;5081584;28;20426;-84
2022/08/11 00:36:19;;;;;;;68.33;5.03;;;23.10;1.00;;;;;;5062675;28;20435;-83
2022/08/11 00:38:50;;;;;;;69.03;4.57;;;23.10;1.00;;;;;;5079266;28;20919;-83
2022/08/11 00:41:43;;;;;;;68.37;4.20;;;23.00;1.00;;;;;;5079847;28;20883;-83
2022/08/11 00:44:23;;;;;;;68.77;4.60;;;23.00;1.00;;;;;;5079423;28;20504;-83
2022/08/11 00:47:09;;;;;;;67.77;4.23;;;23.00;1.00;;;;;;5080109;28;20407;-83
2022/08/11 00:49:47;;;;;;;70.60;4.63;;;22.90;1.00;;;;;;5079981;28;20437;-84
2022/08/11 00:52:33;;;;;;;68.87;4.80;;;22.80;1.00;;;;;;5061569;28;20417;-83
2022/08/11 00:55:56;;;;;;;68.17;5.00;;;22.80;1.00;;;;;;5080440;28;20413;-84
2022/08/11 00:58:35;;;;;;;72.90;6.00;;;22.70;1.00;;;;;;5017856;28;20413;-83
2022/08/11 01:01:16;;;;;;;68.40;5.97;;;22.70;1.00;;;;;;5018347;28;20557;-84
2022/08/11 01:04:26;;;;;;;67.40;5.00;;;22.70;1.00;;;;;;5059248;28;20904;-84
2022/08/11 01:07:32;;;;;;;67.93;5.97;;;22.60;1.00;;;;;;5045851;28;20439;-84
2022/08/11 01:10:12;;;;;;;68.00;4.70;;;22.40;1.00;;;;;;5079424;28;20478;-83
2022/08/11 01:13:13;;;;;;;68.07;5.13;;;22.50;1.00;;;;;;5080009;28;20869;-83
2022/08/11 01:15:59;;;;;;;67.80;4.80;;;22.50;1.00;;;;;;5079517;28;20469;-83
2022/08/11 01:18:54;;;;;;;67.00;5.20;;;22.50;1.00;;;;;;5092252;28;20382;-84
2022/08/11 01:21:39;;;;;;;68.97;4.97;;;22.40;1.00;;;;;;5075095;28;20403;-84
2022/08/11 01:24:32;;;;;;;67.80;5.60;;;22.40;1.00;;;;;;5074217;28;20426;-84
2022/08/11 01:27:25;;;;;;;67.00;4.90;;;22.40;1.00;;;;;;5091710;28;20527;-84
2022/08/11 01:30:25;;;;;;;67.93;5.03;;;22.40;1.00;;;;;;5091839;28;20857;-84
2022/08/11 01:33:14;;;;;;;67.70;4.73;;;22.30;1.00;;;;;;5092294;28;20453;-84
2022/08/11 01:35:54;;;;;;;67.20;4.87;;;22.20;1.00;;;;;;5091947;28;20450;-84
2022/08/11 01:38:43;;;;;;;67.67;4.07;;;22.20;1.00;;;;;;5091321;28;20383;-84
2022/08/11 01:44:36;;;;;;;68.53;4.57;;;22.20;1.00;;;;;;5073933;28;20438;-84
2022/08/11 01:44:36;;;;;;;68.87;4.67;;;22.10;1.00;;;;;;5091116;28;20418;-84
2022/08/11 01:47:09;;;;;;;66.90;4.63;;;22.10;1.00;;;;;;5091924;28;20440;-84
2022/08/11 01:50:27;;;;;;;67.80;4.63;;;22.00;1.00;;;;;;5091494;28;20410;-84
2022/08/11 01:53:10;;;;;;;67.90;4.80;;;22.00;1.00;;;;;;5038542;28;20494;-84
2022/08/11 01:55:42;;;;;;;66.67;4.80;;;21.90;1.00;;;;;;5091579;28;20374;-84
2022/08/11 01:58:14;;;;;;;68.67;4.83;;;21.90;1.00;;;;;;5088968;28;20437;-83
2022/08/11 02:01:17;;;;;;;69.27;4.83;;;21.90;1.00;;;;;;5083319;28;20426;-83
2022/08/11 02:03:57;;;;;;;66.80;4.67;;;21.80;1.00;;;;;;5081219;28;20413;-84
2022/08/11 02:07:01;;;;;;;66.43;4.47;;;21.80;1.00;;;;;;5064606;28;20485;-84
2022/08/11 02:11:29;;;;;;;67.43;5.20;;;21.80;1.00;;;;;;5063336;28;20451;-83
2022/08/11 02:12:56;;;;;;;68.80;4.83;;;21.70;1.00;;;;;;5082229;28;20416;-84
2022/08/11 02:15:25;;;;;;;68.00;4.77;;;21.70;1.00;;;;;;5082938;28;20440;-84
2022/08/11 02:18:03;;;;;;;68.30;5.57;;;21.60;1.00;;;;;;5064047;28;20909;-83
2022/08/11 02:23:41;;;;;;;68.33;5.10;;;21.60;1.00;;;;;;5082179;28;20385;-84
2022/08/11 02:26:19;;;;;;;67.40;4.80;;;21.50;1.00;;;;;;5081900;28;20422;-83
2022/08/11 02:29:06;;;;;;;66.87;4.93;;;21.40;1.00;;;;;;5064191;28;20463;-84
2022/08/11 02:34:43;;;;;;;68.10;5.40;;;21.40;1.00;;;;;;5083063;28;20761;-84
2022/08/11 02:37:30;;;;;;;69.00;5.57;;;21.30;1.00;;;;;;5083135;28;20421;-84
2022/08/11 02:40:22;;;;;;;70.03;5.60;;;21.20;1.00;;;;;;5083469;28;20798;-84
2022/08/11 02:42:47;;;;;;;68.50;6.03;;;21.20;1.00;;;;;;5083677;28;20379;-84
2022/08/11 02:45:28;;;;;;;69.27;6.50;;;21.20;1.00;;;;;;5065119;28;20785;-83
2022/08/11 02:51:16;;;;;;;68.93;7.47;;;21.20;1.00;;;;;;5084705;28;20389;-84
2022/08/11 02:53:50;;;;;;;68.77;8.00;;;21.10;1.00;;;;;;5066442;28;20402;-84
2022/08/11 02:56:51;;;;;;;70.03;8.10;;;21.10;1.00;;;;;;5066795;28;20441;-84
2022/08/11 02:59:50;;;;;;;71.97;8.90;;;21.00;1.00;;;;;;5061119;28;20560;-84
2022/08/11 03:02:47;;;;;;;68.20;5.30;;;21.10;1.00;;;;;;5083990;28;20943;-84
2022/08/11 03:05:31;;;;;;;68.50;5.90;;;21.10;1.00;;;;;;5084811;28;20398;-84
2022/08/11 03:08:18;;;;;;;71.87;5.80;;;21.00;1.00;;;;;;5084431;28;20381;-84
2022/08/11 03:17:09;;;;;;;68.90;7.00;;;20.90;1.00;;;;;;5084639;28;20460;-84
2022/08/11 03:20:01;;;;;;;67.90;7.47;;;20.90;1.00;;;;;;5084435;28;20422;-84
2022/08/11 03:22:47;;;;;;;69.57;9.17;;;20.80;1.00;;;;;;5086627;28;20423;-84
2022/08/11 03:25:48;;;;;;;69.20;9.07;;;20.70;1.00;;;;;;5135920;22;20580;-85
2022/08/11 03:28:42;;;;;;;70.40;11.10;;;20.70;1.00;;;;;;5039072;28;20411;-86
2022/08/11 03:31:26;;;;;;;69.87;10.80;;;20.60;1.00;;;;;;5063000;28;20398;-86
2022/08/11 03:34:02;;;;;;;69.87;11.70;;;20.60;1.00;;;;;;5043228;28;20406;-85
2022/08/11 03:37:01;;;;;;;70.63;13.97;;;20.60;1.00;;;;;;5058865;28;20407;-85
2022/08/11 03:39:51;;;;;;;76.23;12.87;;;20.50;1.00;;;;;;5058548;28;20528;-85
2022/08/11 03:42:25;;;;;;;73.00;13.97;;;20.50;1.00;;;;;;5059848;28;20725;-85
2022/08/11 03:44:58;;;;;;;71.60;14.57;;;20.40;1.00;;;;;;5059354;28;20935;-85
2022/08/11 03:47:45;;;;;;;74.20;15.77;;;20.40;1.00;;;;;;5058939;28;20526;-85
2022/08/11 03:50:37;;;;;;;73.30;14.17;;;20.40;1.00;;;;;;5058390;28;20410;-85
2022/08/11 03:53:15;;;;;;;71.07;14.43;;;20.40;1.00;;;;;;5058849;28;20444;-85
2022/08/11 03:55:59;;;;;;;70.80;14.73;;;20.40;1.00;;;;;;5041344;28;20415;-85
2022/08/11 03:58:28;;;;;;;71.20;13.70;;;20.40;1.00;;;;;;5059796;28;20404;-85
2022/08/11 04:01:13;;;;;;;72.50;12.30;;;20.30;1.00;;;;;;5058113;28;20442;-85
2022/08/11 04:03:50;;;;;;;70.73;11.90;;;20.30;1.00;;;;;;5040358;28;20504;-85
2022/08/11 04:06:58;;;;;;;68.20;9.90;;;20.30;1.00;;;;;;5057730;28;20778;-85
2022/08/11 04:10:01;;;;;;;69.77;11.27;;;20.30;1.00;;;;;;5039989;28;20417;-85
2022/08/11 04:12:45;;;;;;;69.70;9.90;;;20.30;1.60;;;;;;5040226;28;20413;-86
2022/08/11 04:18:58;;;;;;;68.70;9.13;;;20.20;5.70;;;;;;5058726;28;20953;-85
2022/08/11 04:21:36;;;;;;;67.27;8.80;;;20.20;7.50;;;;;;5039668;28;20419;-85
2022/08/11 04:24:25;;;;;;;68.20;8.90;;;20.20;8.00;;;;;;5057612;28;20417;-85
2022/08/11 04:27:12;;;;;;;68.73;9.37;;;20.20;9.10;;;;;;5038959;28;20852;-86
2022/08/11 04:30:08;;;;;;;69.80;8.37;;;20.10;9.50;;;;;;5055776;28;20415;-85
2022/08/11 04:32:52;;;;;;;67.50;8.13;;;20.10;10.50;;;;;;5057474;28;20400;-85
2022/08/11 04:35:42;;;;;;;70.77;7.03;;;20.10;11.50;;;;;;5056059;28;20829;-85
2022/08/11 04:38:43;;;;;;;74.53;7.80;;;20.10;12.20;;;;;;5057857;28;20419;-85
2022/08/11 04:41:30;;;;;;;67.50;6.50;;;20.00;13.30;;;;;;5056270;28;20535;-86
2022/08/11 04:44:23;;;;;;;68.40;6.80;;;20.00;14.30;;;;;;5039646;28;20418;-85
2022/08/11 04:47:09;;;;;;;68.57;6.30;;;20.00;14.30;;;;;;5057498;28;20458;-85
2022/08/11 05:02:07;;;;;;;68.17;7.53;;;20.00;18.00;;;;;;5063451;28;20451;-86
2022/08/11 05:07:54;;;;;;;70.50;7.60;;;20.10;18.60;;;;;;5068336;28;20428;-86
2022/08/11 05:10:38;;;;;;;70.87;6.83;;;20.10;19.60;;;;;;5068588;28;20388;-86
2022/08/11 05:37:02;;;;;;;70.27;6.70;;;20.40;23.30;;;;;;5043026;28;20432;-85
2022/08/11 05:56:53;;;;;;;66.67;5.80;;;20.50;9.80;;;;;;5061518;28;20420;-84
2022/08/11 05:59:20;;;;;;;72.47;6.80;;;20.50;9.10;;;;;;5042245;28;20473;-84
2022/08/11 06:01:46;;;;;;;69.70;6.53;;;20.60;8.30;;;;;;5060509;28;20411;-84
2022/08/11 06:04:31;;;;;;;67.87;6.90;;;20.50;5.70;;;;;;5061497;28;20395;-84
2022/08/11 06:07:11;;;;;;;72.50;8.60;;;20.60;1.00;;;;;;5061199;28;20418;-84
2022/08/11 06:09:49;;;;;;;70.60;7.67;;;20.60;1.00;;;;;;5061362;28;20386;-84
2022/08/11 06:12:28;;;;;;;69.27;7.00;;;20.60;1.00;;;;;;5060434;28;20403;-84
2022/08/11 06:14:56;;;;;;;70.07;7.97;;;20.70;1.00;;;;;;5058802;28;20410;-85
2022/08/11 06:17:25;;;;;;;68.57;5.90;;;20.70;1.00;;;;;;5040712;28;20429;-84
2022/08/11 06:19:58;;;;;;;67.87;6.00;;;20.80;1.00;;;;;;5060078;28;20443;-84
2022/08/11 06:22:25;;;;;;;68.47;5.80;;;20.90;1.00;;;;;;5041795;28;20414;-85
2022/08/11 06:25:01;;;;;;;69.40;5.47;;;20.90;1.00;;;;;;5062749;28;20425;-85
2022/08/11 06:27:31;;;;;;;67.67;5.20;;;20.90;1.00;;;;;;5061555;28;20426;-85
2022/08/11 06:29:58;;;;;;;70.97;5.10;;;21.00;1.00;;;;;;5060908;28;20501;-84
2022/08/11 06:32:31;;;;;;;70.73;5.20;;;21.10;1.00;;;;;;5061498;28;20399;-85
2022/08/11 06:35:18;;;;;;;68.20;5.63;;;21.10;1.00;;;;;;5062311;28;20387;-85
2022/08/11 06:38:11;;;;;;;68.00;5.07;;;21.20;1.00;;;;;;5061258;28;20419;-84
2022/08/11 06:44:12;;;;;;;66.07;4.40;;;21.40;1.00;;;;;;5061294;28;20422;-85
2022/08/11 06:46:45;;;;;;;70.10;5.50;;;21.50;1.00;;;;;;5061315;28;20777;-85
2022/08/11 06:52:03;;;;;;;68.40;4.80;;;21.60;1.00;;;;;;5061377;28;20383;-85
2022/08/11 06:54:31;;;;;;;68.37;4.83;;;21.70;1.00;;;;;;5043436;28;20759;-85
2022/08/11 07:03:12;;;;;;;67.17;4.53;;;21.80;1.00;;;;;;5061912;28;20410;-84
2022/08/11 07:05:54;;;;;;;70.80;4.77;;;21.90;1.00;;;;;;5060842;28;20391;-85
2022/08/11 07:28:53;;;;;;;69.17;4.33;;;22.20;1.00;;;;;;5058180;28;20446;-84
2022/08/11 07:28:57;;;;;;;68.10;3.90;;;22.50;1.00;;;;;;5058695;28;20378;-84
2022/08/11 07:32:02;;;;;;;72.47;4.73;;;22.70;1.00;;;;;;5040491;28;20878;-84
2022/08/11 07:34:35;;;;;;;69.57;4.73;;;22.70;1.00;;;;;;5033912;28;20422;-84
2022/08/11 07:37:09;;;;;;;74.10;4.00;;;22.80;1.00;;;;;;5056009;28;20411;-84
2022/08/11 07:39:37;;;;;;;70.90;4.57;;;22.80;1.00;;;;;;5037548;28;20801;-85
2022/08/11 07:42:13;;;;;;;66.40;4.50;;;22.90;1.00;;;;;;5037963;28;20921;-85
2022/08/11 07:52:59;;;;;;;66.27;3.97;;;23.20;1.00;;;;;;5058838;28;20383;-85
2022/08/11 07:55:26;;;;;;;72.17;5.00;;;23.30;1.00;;;;;;5059064;28;20952;-85
2022/08/11 08:20:02;;;;;;;70.60;5.17;;;24.10;1.00;;;;;;5059966;28;20785;-85
2022/08/11 08:22:29;;;;;;;70.90;4.70;;;24.30;1.00;;;;;;5059402;28;20521;-85
2022/08/11 08:24:55;;;;;;;68.50;4.73;;;24.40;1.00;;;;;;5040850;28;20421;-85
2022/08/11 08:27:24;;;;;;;67.50;4.30;;;24.60;1.00;;;;;;5058115;28;20427;-85
2022/08/11 08:32:39;;;;;;;71.33;4.30;;;24.70;1.00;;;;;;5059999;28;20387;-85
2022/08/11 08:35:06;;;;;;;71.57;4.70;;;24.80;1.00;;;;;;5059233;28;20394;-85
2022/08/11 08:37:32;;;;;;;69.50;4.47;;;24.80;1.00;;;;;;5059068;28;20451;-85
2022/08/11 08:39:58;;;;;;;68.10;4.23;;;24.80;1.00;;;;;;5058378;28;20408;-85
2022/08/11 08:42:40;;;;;;;67.87;4.30;;;24.90;1.00;;;;;;5042226;28;20205;-85
2022/08/11 08:45:09;;;;;;;75.60;4.50;;;25.00;1.00;;;;;;5040021;28;20405;-85
2022/08/11 08:47:38;;;;;;;73.53;4.90;;;25.10;1.00;;;;;;5058771;28;20925;-85
2022/08/11 08:50:18;;;;;;;72.50;4.70;;;25.20;1.00;;;;;;5057983;28;20588;-85
2022/08/11 08:53:02;;;;;;;68.27;3.90;;;25.40;1.00;;;;;;5039402;28;20409;-85
2022/08/11 08:55:30;;;;;;;66.67;3.97;;;25.40;1.00;;;;;;5056005;28;20431;-85
2022/08/11 08:57:59;;;;;;;66.60;4.20;;;25.50;1.00;;;;;;5055837;28;20401;-85
2022/08/11 09:00:41;;;;;;;67.37;4.10;;;25.50;1.00;;;;;;5056960;28;20417;-85
2022/08/11 09:03:07;;;;;;;69.10;5.17;;;25.60;1.00;;;;;;5058846;28;20469;-86
2022/08/11 09:05:34;;;;;;;71.00;4.13;;;25.60;1.00;;;;;;5054668;28;20909;-86
2022/08/11 09:08:00;;;;;;;71.53;14.93;;;25.70;1.00;;;;;;5056411;28;20468;-85
2022/08/11 09:10:29;;;;;;;67.50;4.60;;;25.80;1.00;;;;;;5056538;28;20442;-85
2022/08/11 09:12:56;;;;;;;68.97;4.40;;;25.90;1.00;;;;;;5055382;28;20914;-85
2022/08/11 09:15:23;;;;;;;70.30;4.03;;;25.90;1.00;;;;;;5038948;28;20884;-86
2022/08/11 09:18:02;;;;;;;73.03;4.30;;;26.00;1.00;;;;;;5057102;28;20425;-86
2022/08/11 09:20:33;;;;;;;67.43;4.10;;;26.10;1.00;;;;;;5055477;28;20959;-85
2022/08/11 09:28:36;;;;;;;67.00;4.13;;;26.40;1.00;;;;;;5088623;28;20897;-83
2022/08/11 09:31:04;;;;;;;73.57;5.33;;;26.50;1.00;;;;;;5088349;28;20468;-83
2022/08/11 09:33:31;;;;;;;69.23;4.03;;;26.70;1.00;;;;;;5086888;28;20402;-82
2022/08/11 09:40:27;;;;;;;67.77;4.03;;;26.70;1.00;;;;;;5086038;28;20425;-83
2022/08/11 09:41:31;;;;;;;71.60;3.67;;;26.80;1.00;;;;;;5090018;28;20431;-83
2022/08/11 09:46:43;;;;;;;71.17;3.63;;;26.80;1.00;;;;;;5091113;28;20428;-83
2022/08/11 09:49:09;;;;;;;70.63;3.63;;;26.90;1.00;;;;;;5090270;28;20952;-83
2022/08/11 09:51:35;;;;;;;68.17;3.90;;;27.00;1.00;;;;;;5088506;28;20402;-83
2022/08/11 09:54:05;;;;;;;68.67;3.60;;;27.20;1.00;;;;;;5088909;28;20812;-82
2022/08/11 09:59:21;;;;;;;68.50;3.27;;;27.40;1.00;;;;;;5089147;28;20390;-83
2022/08/11 10:01:51;;;;;;;68.53;3.27;;;27.50;1.00;;;;;;5091306;28;20765;-83
2022/08/11 10:04:37;;;;;;;67.73;3.57;;;27.60;1.00;;;;;;5090012;28;20398;-83
2022/08/11 10:07:05;;;;;;;67.40;3.60;;;27.70;1.00;;;;;;5087779;28;20422;-82
2022/08/11 10:09:40;;;;;;;66.80;3.43;;;27.90;1.00;;;;;;5090408;28;20489;-83
2022/08/11 10:12:13;;;;;;;68.87;3.80;;;28.20;1.00;;;;;;5070752;28;20418;-83
2022/08/11 10:18:40;;;;;;;69.00;3.57;;;28.50;1.00;;;;;;5088862;28;20429;-83
2022/08/11 10:20:31;;;;;;;67.10;3.60;;;28.60;1.00;;;;;;5087704;28;20503;-83
2022/08/11 10:28:31;;;;;;;68.93;4.20;;;29.10;1.00;;;;;;5089578;28;20489;-83
2022/08/11 10:33:59;;;;;;;69.40;4.90;;;29.00;1.00;;;;;;5089971;28;20405;-83
2022/08/11 10:36:27;;;;;;;70.27;4.63;;;29.30;1.00;;;;;;5091600;28;20433;-83
2022/08/11 10:38:54;;;;;;;71.23;5.07;;;29.40;1.00;;;;;;5091294;28;20414;-83
2022/08/11 10:44:07;;;;;;;67.97;4.20;;;29.70;1.00;;;;;;5089527;28;20414;-83
2022/08/11 10:49:20;;;;;;;67.90;3.80;;;30.30;1.00;;;;;;5089388;28;20390;-83
2022/08/11 11:00:05;;;;;;;68.40;4.57;;;30.40;1.00;;;;;;5087149;28;20548;-83
2022/08/11 11:02:33;;;;;;;68.93;3.53;;;30.70;1.00;;;;;;5088585;28;20432;-83
2022/08/11 11:05:11;;;;;;;68.17;3.30;;;30.90;1.00;;;;;;5088351;28;20878;-83
2022/08/11 11:07:46;;;;;;;69.60;3.27;;;30.90;1.00;;;;;;5087549;28;20913;-81
2022/08/11 11:10:12;;;;;;;69.57;3.37;;;30.80;1.00;;;;;;5089756;28;20892;-83
2022/08/11 11:18:23;;;;;;;68.77;3.57;;;30.70;1.00;;;;;;5087227;28;20393;-83
2022/08/11 11:21:03;;;;;;;68.20;3.33;;;30.80;1.00;;;;;;5087851;28;20437;-83
2022/08/11 11:24:10;;;;;;;67.37;3.17;;;30.80;1.00;;;;;;5069479;28;20410;-83
2022/08/11 11:26:57;;;;;;;69.50;3.37;;;30.70;1.00;;;;;;5081355;28;20434;-83
2022/08/11 11:30:00;;;;;;;68.67;3.07;;;30.80;1.00;;;;;;5088321;28;20379;-83
2022/08/11 11:32:38;;;;;;;69.67;3.67;;;31.00;1.00;;;;;;5087619;28;20539;-83
2022/08/11 11:35:25;;;;;;;70.50;3.20;;;31.30;1.00;;;;;;5071613;28;20457;-83
2022/08/11 11:37:52;;;;;;;68.00;3.63;;;31.10;1.00;;;;;;5088595;28;20414;-83
2022/08/11 11:40:22;;;;;;;67.87;3.37;;;31.10;1.00;;;;;;5088347;28;20434;-83
2022/08/11 11:42:50;;;;;;;69.67;3.33;;;31.10;1.00;;;;;;5090093;28;20398;-84
2022/08/11 11:45:19;;;;;;;66.90;3.00;;;31.30;1.00;;;;;;5089495;28;20394;-84
2022/08/11 11:47:51;;;;;;;67.20;2.80;;;31.40;1.00;;;;;;5067777;28;20441;-84
2022/08/11 11:50:34;;;;;;;67.80;3.40;;;31.50;1.00;;;;;;5068831;28;20406;-83
2022/08/11 11:53:02;;;;;;;67.70;2.90;;;31.40;1.00;;;;;;5085238;28;20896;-84
2022/08/11 11:55:32;;;;;;;68.60;3.50;;;31.50;1.00;;;;;;5088155;28;20452;-83
2022/08/11 12:03:36;;;;;;;69.30;3.17;;;32.60;1.00;;;;;;5091670;28;20398;-84
2022/08/11 12:06:03;;;;;;;67.17;2.87;;;32.60;1.00;;;;;;5071898;28;20442;-84
2022/08/11 12:08:30;;;;;;;71.67;3.47;;;32.50;1.00;;;;;;5093170;28;20394;-84
2022/08/11 12:13:52;;;;;;;69.80;3.60;;;31.90;1.00;;;;;;5089097;28;20742;-84
2022/08/11 12:16:20;;;;;;;67.80;3.10;;;31.90;1.00;;;;;;5090379;28;20426;-84
2022/08/11 12:18:48;;;;;;;69.80;3.00;;;32.10;1.00;;;;;;5090852;28;20943;-84
2022/08/11 12:21:15;;;;;;;67.70;2.87;;;32.40;1.00;;;;;;5091724;28;20468;-85
2022/08/11 12:29:16;;;;;;;74.03;3.10;;;32.20;1.00;;;;;;5091486;28;20376;-84
2022/08/11 12:31:43;;;;;;;67.37;2.90;;;32.00;1.00;;;;;;5090878;28;20482;-84
2022/08/11 12:34:15;;;;;;;68.47;3.93;;;32.40;1.00;;;;;;5090886;28;20395;-83
2022/08/11 12:37:04;;;;;;;69.53;5.10;;;32.40;1.00;;;;;;5089519;28;20475;-83
2022/08/11 12:45:27;;;;;;;71.20;3.37;;;32.20;1.00;;;;;;5090860;28;20390;-84
2022/08/11 12:54:00;;;;;;;69.40;4.50;;;32.30;1.00;;;;;;5089570;28;20382;-83
2022/08/11 13:04:57;;;;;;;68.20;5.00;;;33.00;1.00;;;;;;5088517;28;20389;-83
2022/08/11 13:07:29;;;;;;;69.97;6.73;;;33.10;1.00;;;;;;5090213;28;20824;-84
2022/08/11 13:09:56;;;;;;;70.63;6.27;;;32.80;1.00;;;;;;5087701;28;20382;-83
2022/08/11 13:15:17;;;;;;;71.07;7.20;;;33.10;1.00;;;;;;5092213;28;20992;-83
2022/08/11 13:17:43;;;;;;;68.20;6.20;;;32.90;1.00;;;;;;5072870;28;20503;-83
2022/08/11 13:20:13;;;;;;;73.50;6.53;;;33.00;1.00;;;;;;5092083;28;20820;-84
2022/08/11 13:22:44;;;;;;;69.00;5.77;;;33.20;1.00;;;;;;5089226;28;20491;-83
2022/08/11 13:25:12;;;;;;;74.20;7.13;;;33.10;1.00;;;;;;5091612;28;20414;-83
2022/08/11 13:27:38;;;;;;;68.60;6.47;;;33.00;1.00;;;;;;5092198;28;20434;-83
2022/08/11 13:32:50;;;;;;;70.20;6.40;;;33.00;1.00;;;;;;5091313;28;20390;-84
2022/08/11 13:35:17;;;;;;;69.90;5.10;;;33.00;1.00;;;;;;5092962;28;20478;-83
2022/08/11 13:37:47;;;;;;;67.60;4.40;;;32.90;1.00;;;;;;5092558;28;20983;-83
2022/08/11 13:40:16;;;;;;;69.60;4.87;;;32.70;1.00;;;;;;5091294;28;20470;-83
2022/08/11 13:42:43;;;;;;;71.20;4.70;;;32.80;1.00;;;;;;5090877;28;20405;-83
2022/08/11 13:45:09;;;;;;;68.50;3.70;;;32.70;1.00;;;;;;5092286;28;20408;-83
2022/08/11 13:47:36;;;;;;;68.27;4.80;;;32.60;1.00;;;;;;5090638;28;20424;-83
2022/08/11 13:50:04;;;;;;;70.47;6.13;;;32.70;1.00;;;;;;5075547;28;20417;-83
2022/08/11 13:52:30;;;;;;;70.57;7.00;;;32.70;1.00;;;;;;5093174;28;20448;-83
2022/08/11 13:54:56;;;;;;;71.70;5.60;;;32.80;1.00;;;;;;5093033;28;20474;-83
2022/08/11 13:57:23;;;;;;;67.93;5.33;;;32.90;1.00;;;;;;5093596;28;20429;-83
2022/08/11 13:59:53;;;;;;;68.10;5.20;;;33.10;1.00;;;;;;5094906;28;20485;-83
2022/08/11 14:02:27;;;;;;;68.40;5.43;;;33.10;1.00;;;;;;5093745;28;20405;-83
2022/08/11 14:05:01;;;;;;;69.73;4.60;;;33.20;1.00;;;;;;5092379;28;20432;-83
2022/08/11 14:07:34;;;;;;;70.30;3.93;;;33.10;1.00;;;;;;5093071;28;20430;-83
2022/08/11 14:10:00;;;;;;;71.00;5.10;;;33.10;1.00;;;;;;5094111;28;20386;-83
2022/08/11 14:15:19;;;;;;;67.80;4.57;;;33.30;1.00;;;;;;5093716;28;20390;-83
2022/08/11 14:17:52;;;;;;;67.97;3.60;;;33.20;1.00;;;;;;5093161;28;20418;-83
2022/08/11 14:20:19;;;;;;;76.57;6.07;;;33.30;1.00;;;;;;5093233;28;20920;-83
2022/08/11 14:22:46;;;;;;;67.97;4.80;;;33.30;1.00;;;;;;5091940;28;20402;-83
2022/08/11 14:25:15;;;;;;;68.13;4.30;;;33.30;1.00;;;;;;5090388;28;20410;-80
2022/08/11 14:27:43;;;;;;;67.40;3.63;;;33.20;1.00;;;;;;5088178;28;20423;-80
2022/08/11 14:30:53;;;;;;;67.47;3.27;;;33.30;1.00;;;;;;5085474;28;20402;-80
2022/08/11 14:32:56;;;;;;;69.03;4.07;;;33.50;1.00;;;;;;5085928;28;20410;-79
2022/08/11 14:35:26;;;;;;;68.40;3.60;;;33.70;1.00;;;;;;5086848;28;20428;-80
2022/08/11 14:37:52;;;;;;;71.50;3.47;;;33.80;1.00;;;;;;5086564;28;20772;-80
2022/08/11 14:48:36;;;;;;;68.07;3.50;;;33.80;1.00;;;;;;5086964;28;20386;-80
2022/08/11 14:51:04;;;;;;;68.67;3.30;;;33.70;1.00;;;;;;5089917;28;20463;-80
2022/08/11 14:53:31;;;;;;;71.00;3.53;;;33.50;1.00;;;;;;5070418;28;20418;-80
2022/08/11 14:58:42;;;;;;;68.33;3.50;;;33.50;1.00;;;;;;5088237;28;20417;-80
2022/08/11 15:03:09;;;;;;;67.80;3.97;;;33.40;1.00;;;;;;5086428;28;20454;-80
2022/08/11 15:03:56;;;;;;;69.67;3.40;;;33.40;1.00;;;;;;5087833;28;20418;-80
2022/08/11 15:06:24;;;;;;;69.37;3.00;;;33.40;1.00;;;;;;5089340;28;20422;-79
2022/08/11 15:08:53;;;;;;;69.57;3.40;;;33.50;1.00;;;;;;5090455;28;20402;-79
2022/08/11 15:14:10;;;;;;;68.70;3.40;;;33.30;1.00;;;;;;5090348;28;20414;-79
2022/08/11 15:19:30;;;;;;;70.33;5.00;;;33.00;1.00;;;;;;5089230;28;20382;-79
2022/08/11 15:24:57;;;;;;;68.60;3.30;;;33.20;1.00;;;;;;5114877;22;20516;-81
2022/08/11 15:38:24;;;;;;;68.37;3.20;;;33.50;1.00;;;;;;5075083;28;20413;-80
2022/08/11 15:46:50;;;;;;;71.10;3.40;;;34.10;1.00;;;;;;5075130;28;20500;-80
2022/08/11 15:49:30;;;;;;;70.17;3.60;;;34.50;1.00;;;;;;5056651;28;20974;-80
2022/08/11 15:52:05;;;;;;;67.50;3.50;;;34.90;1.00;;;;;;5075014;28;20389;-80
2022/08/11 15:54:32;;;;;;;69.17;3.67;;;35.50;1.00;;;;;;5057309;28;20417;-80
2022/08/11 15:57:04;;;;;;;68.77;3.50;;;36.00;1.00;;;;;;5074399;28;20461;-80
2022/08/11 16:05:12;;;;;;;67.87;3.00;;;35.80;1.00;;;;;;5074783;28;20382;-80
2022/08/11 16:07:40;;;;;;;68.87;3.67;;;36.10;1.00;;;;;;5074817;28;20422;-80
2022/08/11 16:10:10;;;;;;;69.47;3.57;;;36.00;1.00;;;;;;5075207;28;20906;-80
2022/08/11 16:18:41;;;;;;;68.20;2.80;;;36.80;1.00;;;;;;5074945;28;20421;-80
2022/08/11 16:21:23;;;;;;;69.90;3.40;;;36.10;1.00;;;;;;5074391;28;20489;-80
2022/08/11 16:23:50;;;;;;;67.57;3.50;;;35.80;1.00;;;;;;5056098;28;20410;-80
2022/08/11 16:26:22;;;;;;;71.50;3.13;;;35.70;1.00;;;;;;5073632;28;20434;-80
2022/08/11 16:29:00;;;;;;;67.87;2.83;;;35.80;1.00;;;;;;5057362;28;20433;-81
2022/08/11 16:31:27;;;;;;;68.80;3.00;;;35.90;1.00;;;;;;5057358;28;20406;-81
2022/08/11 16:33:55;;;;;;;71.80;3.33;;;36.40;1.00;;;;;;5056708;28;20414;-82
2022/08/11 16:39:17;;;;;;;70.00;3.00;;;37.40;1.00;;;;;;5074787;28;20433;-82
2022/08/11 16:47:17;;;;;;;68.40;2.80;;;36.80;1.00;;;;;;5074931;28;20480;-82
2022/08/11 16:49:52;;;;;;;75.30;3.37;;;36.20;1.00;;;;;;5055908;28;20410;-82
2022/08/11 16:52:21;;;;;;;75.60;3.77;;;35.80;1.00;;;;;;5074382;28;20386;-82
2022/08/11 16:54:55;;;;;;;67.50;2.90;;;35.70;1.00;;;;;;5075115;28;20430;-82
2022/08/11 17:00:11;;;;;;;68.40;3.20;;;36.60;1.00;;;;;;5074399;28;20484;-82
2022/08/11 17:14:54;;;;;;;69.80;3.50;;;34.50;1.00;;;;;;5075757;28;20401;-82
2022/08/11 17:17:26;;;;;;;74.50;3.80;;;34.70;1.00;;;;;;5067690;28;20438;-82
2022/08/11 17:19:58;;;;;;;67.20;3.10;;;34.80;1.00;;;;;;5077638;28;20462;-82
2022/08/11 17:25:16;;;;;;;68.77;3.43;;;34.80;1.00;;;;;;5079886;28;20421;-82
2022/08/11 17:27:47;;;;;;;68.60;2.60;;;34.70;1.00;;;;;;5079841;28;20426;-82
2022/08/11 17:30:13;;;;;;;67.33;2.97;;;34.90;1.00;;;;;;5078802;28;20379;-82
2022/08/11 17:35:38;;;;;;;69.23;3.13;;;34.40;1.00;;;;;;5078049;28;20378;-82
2022/08/11 17:38:11;;;;;;;70.30;2.90;;;34.20;1.00;;;;;;5080365;28;20402;-82
2022/08/11 17:49:36;;;;;;;70.00;3.30;;;32.90;1.00;;;;;;5079457;28;20385;-82
2022/08/11 18:00:15;;;;;;;67.50;3.47;;;32.30;1.00;;;;;;5081016;28;20468;-84
2022/08/11 18:05:50;;;;;;;70.20;3.70;;;32.10;1.00;;;;;;5080404;28;20467;-84
